sensor_id;sensor_type;location;lat;lon;timestamp;pressure;altitude;pressure_sealevel;temperature;humidity
31717;BME280;18301;51.076;17.046;2022-09-20T00:04:48;100050.84;;;10.88;93.39
31717;BME280;18301;51.076;17.046;2022-09-20T00:09:50;100050.09;;;10.74;94.34
31717;BME280;18301;51.076;17.046;2022-09-20T00:14:51;100049.34;;;10.83;93.71
31717;BME280;18301;51.076;17.046;2022-09-20T00:19:53;100050.09;;;10.86;93.89
31717;BME280;18301;51.076;17.046;2022-09-20T00:24:54;100047.50;;;10.95;93.14
31717;BME280;18301;51.076;17.046;2022-09-20T00:29:55;100050.81;;;11.10;92.71
31717;BME280;18301;51.076;17.046;2022-09-20T00:34:59;100057.06;;;11.11;92.94
31717;BME280;18301;51.076;17.046;2022-09-20T00:40:15;100060.88;;;11.08;92.90
31717;BME280;18301;51.076;17.046;2022-09-20T00:45:23;100060.41;;;11.03;93.03
31717;BME280;18301;51.076;17.046;2022-09-20T00:50:32;100059.91;;;11.09;92.72
31717;BME280;18301;51.076;17.046;2022-09-20T00:55:40;100056.47;;;11.18;91.50
31717;BME280;18301;51.076;17.046;2022-09-20T01:00:44;100054.88;;;11.04;92.56
31717;BME280;18301;51.076;17.046;2022-09-20T01:05:48;100058.75;;;11.23;91.44
31717;BME280;18301;51.076;17.046;2022-09-20T01:10:51;100053.00;;;11.16;91.24
31717;BME280;18301;51.076;17.046;2022-09-20T01:15:53;100057.41;;;11.17;91.40
31717;BME280;18301;51.076;17.046;2022-09-20T01:20:57;100054.00;;;11.15;91.10
31717;BME280;18301;51.076;17.046;2022-09-20T01:26:22;100052.41;;;11.13;90.73
31717;BME280;18301;51.076;17.046;2022-09-20T01:31:34;100048.97;;;11.11;90.99
31717;BME280;18301;51.076;17.046;2022-09-20T01:36:51;100048.72;;;11.25;89.60
31717;BME280;18301;51.076;17.046;2022-09-20T01:41:58;100055.72;;;11.16;90.58
31717;BME280;18301;51.076;17.046;2022-09-20T01:53:03;100051.81;;;10.98;91.39
31717;BME280;18301;51.076;17.046;2022-09-20T02:14:03;100059.16;;;10.96;90.80
31717;BME280;18301;51.076;17.046;2022-09-20T02:40:23;100072.69;;;10.85;90.83
31717;BME280;18301;51.076;17.046;2022-09-20T02:56:42;100079.31;;;10.92;90.30
31717;BME280;18301;51.076;17.046;2022-09-20T03:07:33;100094.53;;;10.81;90.72
31717;BME280;18301;51.076;17.046;2022-09-20T03:13:10;100096.69;;;10.65;91.87
31717;BME280;18301;51.076;17.046;2022-09-20T03:18:23;100091.22;;;10.67;91.26
31717;BME280;18301;51.076;17.046;2022-09-20T03:29:32;100098.56;;;10.65;91.94
31717;BME280;18301;51.076;17.046;2022-09-20T03:34:53;100109.72;;;10.60;92.53
31717;BME280;18301;51.076;17.046;2022-09-20T04:06:49;100100.66;;;10.95;91.75
31717;BME280;18301;51.076;17.046;2022-09-20T04:12:20;100110.97;;;10.78;93.13
31717;BME280;18301;51.076;17.046;2022-09-20T04:17:40;100114.25;;;10.71;94.22
31717;BME280;18301;51.076;17.046;2022-09-20T04:22:48;100105.53;;;10.56;95.33
31717;BME280;18301;51.076;17.046;2022-09-20T04:27:59;100115.59;;;10.65;95.13
31717;BME280;18301;51.076;17.046;2022-09-20T04:33:22;100120.13;;;10.65;95.41
31717;BME280;18301;51.076;17.046;2022-09-20T04:38:27;100124.94;;;10.72;96.21
31717;BME280;18301;51.076;17.046;2022-09-20T04:49:07;100125.66;;;10.74;96.76
31717;BME280;18301;51.076;17.046;2022-09-20T05:26:34;100156.84;;;10.78;96.53
31717;BME280;18301;51.076;17.046;2022-09-20T05:32:02;100164.81;;;10.69;97.55
31717;BME280;18301;51.076;17.046;2022-09-20T05:37:39;100174.34;;;10.62;97.91
31717;BME280;18301;51.076;17.046;2022-09-20T05:43:07;100174.00;;;10.66;95.81
31717;BME280;18301;51.076;17.046;2022-09-20T05:48:43;100173.88;;;10.56;96.67
31717;BME280;18301;51.076;17.046;2022-09-20T06:04:50;100191.47;;;11.07;94.04
31717;BME280;18301;51.076;17.046;2022-09-20T06:15:21;100195.28;;;11.04;94.81
31717;BME280;18301;51.076;17.046;2022-09-20T06:20:36;100196.63;;;11.10;93.99
31717;BME280;18301;51.076;17.046;2022-09-20T06:25:46;100197.88;;;11.06;93.70
31717;BME280;18301;51.076;17.046;2022-09-20T06:30:54;100201.06;;;11.22;92.19
31717;BME280;18301;51.076;17.046;2022-09-20T06:36:17;100199.09;;;11.36;92.92
31717;BME280;18301;51.076;17.046;2022-09-20T06:41:41;100202.28;;;11.29;92.26
31717;BME280;18301;51.076;17.046;2022-09-20T06:46:43;100212.59;;;11.36;91.74
31717;BME280;18301;51.076;17.046;2022-09-20T06:51:45;100212.84;;;11.33;90.71
31717;BME280;18301;51.076;17.046;2022-09-20T06:56:48;100220.78;;;11.79;89.39
31717;BME280;18301;51.076;17.046;2022-09-20T07:01:50;100221.78;;;11.78;88.92
31717;BME280;18301;51.076;17.046;2022-09-20T07:06:59;100224.53;;;11.67;90.28
31717;BME280;18301;51.076;17.046;2022-09-20T07:12:01;100230.91;;;11.66;90.10
31717;BME280;18301;51.076;17.046;2022-09-20T07:17:03;100240.34;;;11.71;90.38
31717;BME280;18301;51.076;17.046;2022-09-20T07:22:04;100242.78;;;11.97;89.60
31717;BME280;18301;51.076;17.046;2022-09-20T07:27:05;100246.75;;;12.04;88.99
31717;BME280;18301;51.076;17.046;2022-09-20T07:32:07;100261.00;;;11.61;89.53
31717;BME280;18301;51.076;17.046;2022-09-20T07:37:08;100262.72;;;11.85;88.96
31717;BME280;18301;51.076;17.046;2022-09-20T07:42:11;100262.47;;;12.10;88.05
31717;BME280;18301;51.076;17.046;2022-09-20T07:47:12;100267.28;;;12.39;85.39
31717;BME280;18301;51.076;17.046;2022-09-20T07:52:16;100261.44;;;12.55;85.22
31717;BME280;18301;51.076;17.046;2022-09-20T07:57:17;100272.69;;;12.39;84.44
31717;BME280;18301;51.076;17.046;2022-09-20T08:02:19;100273.91;;;12.46;84.93
31717;BME280;18301;51.076;17.046;2022-09-20T08:07:20;100273.81;;;12.89;84.67
31717;BME280;18301;51.076;17.046;2022-09-20T08:12:22;100274.03;;;12.98;83.80
31717;BME280;18301;51.076;17.046;2022-09-20T08:17:46;100280.34;;;13.40;82.29
31717;BME280;18301;51.076;17.046;2022-09-20T08:22:47;100282.44;;;13.16;80.57
31717;BME280;18301;51.076;17.046;2022-09-20T08:28:08;100284.34;;;13.46;78.19
31717;BME280;18301;51.076;17.046;2022-09-20T08:33:10;100283.22;;;13.06;80.57
31717;BME280;18301;51.076;17.046;2022-09-20T08:38:13;100280.63;;;13.05;81.61
31717;BME280;18301;51.076;17.046;2022-09-20T08:43:37;100284.47;;;13.75;78.00
31717;BME280;18301;51.076;17.046;2022-09-20T08:48:40;100282.28;;;13.99;77.20
31717;BME280;18301;51.076;17.046;2022-09-20T08:53:46;100286.50;;;14.23;75.73
31717;BME280;18301;51.076;17.046;2022-09-20T08:58:49;100289.06;;;14.34;75.61
31717;BME280;18301;51.076;17.046;2022-09-20T09:03:57;100291.88;;;13.73;74.59
31717;BME280;18301;51.076;17.046;2022-09-20T09:08:59;100297.84;;;13.67;75.19
31717;BME280;18301;51.076;17.046;2022-09-20T09:14:05;100291.03;;;13.72;75.48
31717;BME280;18301;51.076;17.046;2022-09-20T09:19:29;100298.50;;;13.80;75.47
31717;BME280;18301;51.076;17.046;2022-09-20T09:24:34;100303.94;;;13.80;76.67
31717;BME280;18301;51.076;17.046;2022-09-20T09:29:47;100294.00;;;14.00;75.86
31717;BME280;18301;51.076;17.046;2022-09-20T09:34:50;100309.91;;;14.14;76.37
31717;BME280;18301;51.076;17.046;2022-09-20T09:40:14;100302.06;;;14.21;75.08
31717;BME280;18301;51.076;17.046;2022-09-20T09:45:31;100308.03;;;14.15;75.00
31717;BME280;18301;51.076;17.046;2022-09-20T09:50:36;100312.16;;;13.69;76.51
31717;BME280;18301;51.076;17.046;2022-09-20T09:55:47;100306.19;;;14.15;76.88
31717;BME280;18301;51.076;17.046;2022-09-20T10:00:55;100311.25;;;14.49;73.97
31717;BME280;18301;51.076;17.046;2022-09-20T10:06:17;100308.75;;;14.77;74.38
31717;BME280;18301;51.076;17.046;2022-09-20T10:17:04;100311.56;;;15.24;70.98
31717;BME280;18301;51.076;17.046;2022-09-20T10:28:19;100303.00;;;14.89;71.77
31717;BME280;18301;51.076;17.046;2022-09-20T10:33:34;100319.47;;;14.98;70.91
31717;BME280;18301;51.076;17.046;2022-09-20T10:38:44;100319.44;;;15.36;69.57
31717;BME280;18301;51.076;17.046;2022-09-20T10:49:40;100320.84;;;15.40;69.10
31717;BME280;18301;51.076;17.046;2022-09-20T11:00:13;100310.75;;;14.84;69.08
31717;BME280;18301;51.076;17.046;2022-09-20T11:05:27;100309.56;;;15.26;68.34
31717;BME280;18301;51.076;17.046;2022-09-20T11:10:39;100309.56;;;15.26;67.18
31717;BME280;18301;51.076;17.046;2022-09-20T11:15:54;100315.66;;;15.47;67.13
31717;BME280;18301;51.076;17.046;2022-09-20T11:21:20;100311.47;;;15.62;66.48
31717;BME280;18301;51.076;17.046;2022-09-20T11:26:34;100319.81;;;15.61;66.13
31717;BME280;18301;51.076;17.046;2022-09-20T11:31:41;100314.91;;;15.74;67.68
31717;BME280;18301;51.076;17.046;2022-09-20T11:36:55;100314.03;;;15.83;65.50
31717;BME280;18301;51.076;17.046;2022-09-20T11:42:00;100300.69;;;15.33;67.26
31717;BME280;18301;51.076;17.046;2022-09-20T11:52:34;100315.59;;;15.10;68.52
31717;BME280;18301;51.076;17.046;2022-09-20T11:57:37;100309.84;;;15.23;67.78
31717;BME280;18301;51.076;17.046;2022-09-20T12:02:50;100316.22;;;15.51;67.03
31717;BME280;18301;51.076;17.046;2022-09-20T12:07:55;100310.56;;;15.25;67.43
31717;BME280;18301;51.076;17.046;2022-09-20T12:13:06;100342.78;;;15.10;69.15
31717;BME280;18301;51.076;17.046;2022-09-20T12:28:43;100336.22;;;14.33;75.79
31717;BME280;18301;51.076;17.046;2022-09-20T12:49:30;100345.63;;;14.60;78.00
31717;BME280;18301;51.076;17.046;2022-09-20T12:54:53;100349.63;;;14.75;77.98
31717;BME280;18301;51.076;17.046;2022-09-20T13:00:00;100344.78;;;14.88;77.20
31717;BME280;18301;51.076;17.046;2022-09-20T13:05:02;100351.91;;;14.89;77.88
31717;BME280;18301;51.076;17.046;2022-09-20T13:10:15;100353.34;;;14.84;77.21
31717;BME280;18301;51.076;17.046;2022-09-20T13:15:19;100348.19;;;14.71;77.13
31717;BME280;18301;51.076;17.046;2022-09-20T13:20:27;100347.63;;;14.77;77.18
31717;BME280;18301;51.076;17.046;2022-09-20T13:25:37;100338.78;;;14.75;77.03
31717;BME280;18301;51.076;17.046;2022-09-20T13:30:39;100343.94;;;14.78;75.76
31717;BME280;18301;51.076;17.046;2022-09-20T13:35:45;100349.03;;;14.71;74.50
31717;BME280;18301;51.076;17.046;2022-09-20T13:40:49;100344.78;;;14.88;73.90
31717;BME280;18301;51.076;17.046;2022-09-20T13:45:57;100348.78;;;14.84;73.10
31717;BME280;18301;51.076;17.046;2022-09-20T13:50:59;100347.88;;;14.55;72.44
31717;BME280;18301;51.076;17.046;2022-09-20T13:56:09;100353.59;;;14.61;73.18
31717;BME280;18301;51.076;17.046;2022-09-20T14:01:27;100356.66;;;14.37;73.95
31717;BME280;18301;51.076;17.046;2022-09-20T14:06:30;100347.88;;;14.55;72.91
31717;BME280;18301;51.076;17.046;2022-09-20T14:11:32;100347.53;;;14.38;72.06
31717;BME280;18301;51.076;17.046;2022-09-20T14:16:38;100359.81;;;14.42;71.58
31717;BME280;18301;51.076;17.046;2022-09-20T14:21:41;100360.66;;;14.33;71.14
31717;BME280;18301;51.076;17.046;2022-09-20T14:27:00;100357.94;;;14.33;70.14
31717;BME280;18301;51.076;17.046;2022-09-20T14:37:17;100351.50;;;14.34;70.35
31717;BME280;18301;51.076;17.046;2022-09-20T14:42:29;100345.81;;;14.37;70.55
31717;BME280;18301;51.076;17.046;2022-09-20T14:47:35;100349.53;;;14.36;70.61
31717;BME280;18301;51.076;17.046;2022-09-20T14:52:38;100355.97;;;14.35;68.32
31717;BME280;18301;51.076;17.046;2022-09-20T14:57:44;100357.13;;;14.42;69.89
31717;BME280;18301;51.076;17.046;2022-09-20T15:02:47;100358.47;;;14.58;68.88
31717;BME280;18301;51.076;17.046;2022-09-20T15:07:49;100357.03;;;14.54;68.32
31717;BME280;18301;51.076;17.046;2022-09-20T15:12:50;100359.13;;;14.50;69.76
31717;BME280;18301;51.076;17.046;2022-09-20T15:17:52;100370.75;;;14.62;69.23
31717;BME280;18301;51.076;17.046;2022-09-20T15:22:53;100362.47;;;14.54;69.94
31717;BME280;18301;51.076;17.046;2022-09-20T15:27:56;100357.91;;;14.64;70.17
31717;BME280;18301;51.076;17.046;2022-09-20T15:32:59;100366.34;;;14.70;70.41
31717;BME280;18301;51.076;17.046;2022-09-20T15:38:03;100365.94;;;14.75;71.06
31717;BME280;18301;51.076;17.046;2022-09-20T15:43:06;100366.78;;;14.95;68.34
31717;BME280;18301;51.076;17.046;2022-09-20T15:48:09;100359.91;;;14.71;66.10
31717;BME280;18301;51.076;17.046;2022-09-20T15:53:11;100373.69;;;15.09;64.69
31717;BME280;18301;51.076;17.046;2022-09-20T15:58:13;100373.63;;;14.70;65.66
31717;BME280;18301;51.076;17.046;2022-09-20T16:03:15;100364.47;;;14.71;67.24
31717;BME280;18301;51.076;17.046;2022-09-20T16:08:17;100371.31;;;14.65;67.02
31717;BME280;18301;51.076;17.046;2022-09-20T16:13:19;100376.53;;;14.78;66.62
31717;BME280;18301;51.076;17.046;2022-09-20T16:18:20;100387.28;;;14.49;67.59
31717;BME280;18301;51.076;17.046;2022-09-20T16:23:45;100398.38;;;14.36;68.48
31717;BME280;18301;51.076;17.046;2022-09-20T16:28:47;100403.31;;;14.21;69.28
31717;BME280;18301;51.076;17.046;2022-09-20T16:33:49;100416.84;;;14.12;69.92
31717;BME280;18301;51.076;17.046;2022-09-20T16:38:51;100431.47;;;13.69;72.33
31717;BME280;18301;51.076;17.046;2022-09-20T16:43:55;100445.69;;;13.61;72.73
31717;BME280;18301;51.076;17.046;2022-09-20T16:48:57;100453.53;;;13.43;74.81
31717;BME280;18301;51.076;17.046;2022-09-20T16:54:05;100464.13;;;13.46;74.22
31717;BME280;18301;51.076;17.046;2022-09-20T16:59:08;100462.66;;;13.42;74.90
31717;BME280;18301;51.076;17.046;2022-09-20T17:04:11;100476.59;;;13.38;74.83
31717;BME280;18301;51.076;17.046;2022-09-20T17:09:15;100488.13;;;13.51;74.95
31717;BME280;18301;51.076;17.046;2022-09-20T17:14:18;100500.09;;;13.48;74.67
31717;BME280;18301;51.076;17.046;2022-09-20T17:19:20;100494.06;;;13.45;74.88
31717;BME280;18301;51.076;17.046;2022-09-20T17:24:22;100509.78;;;13.19;75.38
31717;BME280;18301;51.076;17.046;2022-09-20T17:29:25;100508.91;;;13.18;75.77
31717;BME280;18301;51.076;17.046;2022-09-20T17:34:27;100515.06;;;13.31;75.56
31717;BME280;18301;51.076;17.046;2022-09-20T17:39:30;100519.03;;;13.16;76.36
31717;BME280;18301;51.076;17.046;2022-09-20T17:44:31;100526.06;;;13.07;76.91
31717;BME280;18301;51.076;17.046;2022-09-20T17:49:37;100524.59;;;12.92;77.61
31717;BME280;18301;51.076;17.046;2022-09-20T17:54:40;100536.94;;;12.96;77.61
31717;BME280;18301;51.076;17.046;2022-09-20T17:59:42;100528.41;;;12.89;77.67
31717;BME280;18301;51.076;17.046;2022-09-20T18:04:43;100528.09;;;12.72;78.18
31717;BME280;18301;51.076;17.046;2022-09-20T18:09:45;100534.50;;;12.59;78.32
31717;BME280;18301;51.076;17.046;2022-09-20T18:14:47;100544.06;;;12.52;78.41
31717;BME280;18301;51.076;17.046;2022-09-20T18:19:48;100555.63;;;12.32;78.79
31717;BME280;18301;51.076;17.046;2022-09-20T18:24:50;100568.13;;;12.21;79.37
31717;BME280;18301;51.076;17.046;2022-09-20T18:29:51;100562.72;;;12.21;79.55
31717;BME280;18301;51.076;17.046;2022-09-20T18:34:53;100578.47;;;12.16;79.51
31717;BME280;18301;51.076;17.046;2022-09-20T18:39:54;100580.03;;;11.84;81.03
31717;BME280;18301;51.076;17.046;2022-09-20T18:44:55;100577.94;;;11.76;81.25
31717;BME280;18301;51.076;17.046;2022-09-20T18:49:58;100588.81;;;11.87;80.94
31717;BME280;18301;51.076;17.046;2022-09-20T18:55:00;100591.91;;;11.94;81.24
31717;BME280;18301;51.076;17.046;2022-09-20T19:00:08;100580.03;;;11.84;81.63
31717;BME280;18301;51.076;17.046;2022-09-20T19:05:16;100586.25;;;11.86;81.75
31717;BME280;18301;51.076;17.046;2022-09-20T19:10:55;100592.06;;;11.80;82.11
31717;BME280;18301;51.076;17.046;2022-09-20T19:16:11;100593.03;;;11.79;82.35
31717;BME280;18301;51.076;17.046;2022-09-20T19:26:28;100604.53;;;11.69;82.91
31717;BME280;18301;51.076;17.046;2022-09-20T19:31:32;100602.13;;;11.53;83.97
31717;BME280;18301;51.076;17.046;2022-09-20T19:42:19;100632.09;;;11.50;83.97
31717;BME280;18301;51.076;17.046;2022-09-20T19:47:38;100628.00;;;11.45;84.37
31717;BME280;18301;51.076;17.046;2022-09-20T19:52:46;100642.72;;;11.41;84.35
31717;BME280;18301;51.076;17.046;2022-09-20T19:57:47;100636.06;;;11.34;84.83
31717;BME280;18301;51.076;17.046;2022-09-20T20:02:49;100644.84;;;11.24;85.48
31717;BME280;18301;51.076;17.046;2022-09-20T20:29:20;100667.41;;;11.11;85.97
31717;BME280;18301;51.076;17.046;2022-09-20T20:34:22;100667.00;;;11.04;86.06
31717;BME280;18301;51.076;17.046;2022-09-20T20:39:25;100675.66;;;10.83;86.94
31717;BME280;18301;51.076;17.046;2022-09-20T20:44:31;100673.69;;;10.98;86.50
31717;BME280;18301;51.076;17.046;2022-09-20T20:49:35;100681.16;;;10.95;86.56
31717;BME280;18301;51.076;17.046;2022-09-20T20:54:36;100685.38;;;10.73;87.81
31717;BME280;18301;51.076;17.046;2022-09-20T20:59:38;100674.34;;;10.76;87.32
31717;BME280;18301;51.076;17.046;2022-09-20T21:04:39;100686.78;;;10.66;88.30
31717;BME280;18301;51.076;17.046;2022-09-20T21:09:41;100683.22;;;10.66;87.44
31717;BME280;18301;51.076;17.046;2022-09-20T21:14:42;100680.41;;;10.67;87.87
31717;BME280;18301;51.076;17.046;2022-09-20T21:19:44;100686.22;;;10.74;87.73
31717;BME280;18301;51.076;17.046;2022-09-20T21:24:46;100684.72;;;10.57;88.25
31717;BME280;18301;51.076;17.046;2022-09-20T21:29:47;100691.31;;;10.78;87.58
31717;BME280;18301;51.076;17.046;2022-09-20T21:34:49;100698.22;;;10.70;87.69
31717;BME280;18301;51.076;17.046;2022-09-20T21:39:50;100701.34;;;10.76;87.58
31717;BME280;18301;51.076;17.046;2022-09-20T21:44:51;100708.91;;;10.71;87.79
31717;BME280;18301;51.076;17.046;2022-09-20T21:49:53;100703.28;;;10.62;87.83
31717;BME280;18301;51.076;17.046;2022-09-20T21:54:55;100708.69;;;10.74;87.66
31717;BME280;18301;51.076;17.046;2022-09-20T21:59:56;100709.53;;;10.62;87.75
31717;BME280;18301;51.076;17.046;2022-09-20T22:04:57;100712.13;;;10.51;88.93
31717;BME280;18301;51.076;17.046;2022-09-20T22:09:59;100707.16;;;10.45;89.06
31717;BME280;18301;51.076;17.046;2022-09-20T22:15:00;100712.53;;;10.45;88.61
31717;BME280;18301;51.076;17.046;2022-09-20T22:20:02;100704.75;;;10.40;89.17
31717;BME280;18301;51.076;17.046;2022-09-20T22:25:04;100709.69;;;10.33;89.25
31717;BME280;18301;51.076;17.046;2022-09-20T22:30:06;100716.63;;;10.38;89.01
31717;BME280;18301;51.076;17.046;2022-09-20T22:35:08;100710.69;;;10.32;89.39
31717;BME280;18301;51.076;17.046;2022-09-20T22:40:10;100718.66;;;10.34;89.16
31717;BME280;18301;51.076;17.046;2022-09-20T22:45:12;100721.09;;;10.24;90.02
31717;BME280;18301;51.076;17.046;2022-09-20T22:50:13;100718.38;;;10.24;89.40
31717;BME280;18301;51.076;17.046;2022-09-20T22:55:15;100721.94;;;10.25;90.11
31717;BME280;18301;51.076;17.046;2022-09-20T23:00:16;100715.75;;;10.37;89.18
31717;BME280;18301;51.076;17.046;2022-09-20T23:05:17;100719.19;;;10.26;89.87
31717;BME280;18301;51.076;17.046;2022-09-20T23:10:19;100713.84;;;10.25;89.66
31717;BME280;18301;51.076;17.046;2022-09-20T23:15:20;100719.84;;;10.30;89.18
31717;BME280;18301;51.076;17.046;2022-09-20T23:20:22;100718.50;;;10.23;89.03
31717;BME280;18301;51.076;17.046;2022-09-20T23:25:23;100720.91;;;10.27;89.51
31717;BME280;18301;51.076;17.046;2022-09-20T23:30:25;100720.53;;;10.19;89.26
31717;BME280;18301;51.076;17.046;2022-09-20T23:35:26;100724.81;;;10.09;90.28
31717;BME280;18301;51.076;17.046;2022-09-20T23:40:28;100730.94;;;9.98;90.50
31717;BME280;18301;51.076;17.046;2022-09-20T23:45:29;100728.13;;;10.00;90.84
31717;BME280;18301;51.076;17.046;2022-09-20T23:50:31;100731.59;;;10.02;91.16
31717;BME280;18301;51.076;17.046;2022-09-20T23:55:32;100735.06;;;10.04;90.77
